Terminal Aerodrome Forecast
Issued by NWS Sterling, VA

Current Version | Previous Version | Text Only | Print | Product List | Glossary Off
Versions: 1 2 3 4 5 6 7 8 9 10 11 12 13 14 15 16 17 18 19 20 21

000
FTUS41 KLWX 271700
TAFMRB
TAF
KMRB 271721Z 2718/2818 06006KT P6SM SKC
     FM280000 00000KT P6SM SKC
     FM280900 00000KT 1SM BR FEW250
     FM281400 00000KT P6SM FEW250=

USA.gov is the U.S. government's official web portal to all federal, state and local government web resources and services.